Time;durP1;ratioP1;P1;durP2;ratioP2;P2;SDS_P1;SDS_P2;PMS_P1;PMS_P2;Temp;Humidity;BMP_temperature;BMP_pressure;BME280_temperature;BME280_humidity;BME280_pressure;Samples;Min_cycle;Max_cycle;Signal;HPM_P1;HPM_P2
2022/03/12 00:01:42;;;;;;;;;;;;;;;2.39;63.67;100875.00;4985611;28;20044;-62
2022/03/12 00:04:46;;;;;;;14.15;8.23;;;;;;;2.51;63.66;100880.84;4992894;28;19921;-62
2022/03/12 00:07:51;;;;;;;15.60;8.68;;;;;;;2.47;63.67;100879.19;4992655;28;20410;-62
2022/03/12 00:10:54;;;;;;;12.85;8.05;;;;;;;2.59;63.60;100883.34;4992359;28;20097;-62
2022/03/12 00:13:57;;;;;;;16.40;8.32;;;;;;;2.48;63.90;100874.88;4992588;28;20065;-62
2022/03/12 00:17:01;;;;;;;;;;;;;;;2.46;64.09;100872.34;4993153;28;20057;-62
2022/03/12 00:20:09;;;;;;;13.38;7.80;;;;;;;2.60;64.08;100868.72;4992969;28;20048;-62
2022/03/12 00:23:17;;;;;;;12.38;7.93;;;;;;;2.69;63.55;100877.16;4992452;28;20197;-62
2022/03/12 00:26:23;;;;;;;14.30;7.50;;;;;;;2.47;63.56;100879.19;4992301;28;20502;-62
2022/03/12 00:29:26;;;;;;;13.18;7.20;;;;;;;2.25;64.57;100878.63;4992387;28;20187;-62
2022/03/12 00:32:30;;;;;;;11.70;7.88;;;;;;;2.20;64.60;100877.84;4992359;28;20065;-62
2022/03/12 00:35:34;;;;;;;12.48;6.68;;;;;;;2.36;63.92;100870.72;4992535;28;20404;-62
2022/03/12 00:38:38;;;;;;;14.00;8.13;;;;;;;2.21;64.23;100883.84;4992223;28;20104;-62
2022/03/12 00:41:45;;;;;;;10.73;7.15;;;;;;;2.34;64.32;100882.81;4993141;28;20097;-62
2022/03/12 00:44:47;;;;;;;12.18;7.10;;;;;;;2.33;64.07;100887.13;4996335;28;20049;-62
2022/03/12 00:47:51;;;;;;;11.73;6.82;;;;;;;2.50;63.90;100880.88;4996149;28;20060;-62
2022/03/12 00:50:55;;;;;;;;;;;;;;;2.65;63.21;100877.22;4996853;28;20052;-62
2022/03/12 00:53:58;;;;;;;10.18;6.82;;;;;;;2.58;63.07;100880.78;4996132;28;19964;-62
2022/03/12 00:57:02;;;;;;;13.65;7.80;;;;;;;2.35;64.14;100879.34;4995947;28;20077;-62
2022/03/12 01:00:13;;;;;;;14.85;8.02;;;;;;;2.26;64.65;100893.22;4996136;28;20049;-62
2022/03/12 01:03:16;;;;;;;12.32;6.80;;;;;;;2.27;64.70;100891.50;4995995;28;20045;-62
2022/03/12 01:06:19;;;;;;;11.40;6.72;;;;;;;2.32;64.58;100892.28;4995839;28;20044;-62
2022/03/12 01:09:22;;;;;;;;;;;;;;;2.28;64.68;100890.63;4996293;28;20065;-62
2022/03/12 01:12:25;;;;;;;10.25;6.35;;;;;;;2.19;65.29;100888.16;4995779;28;19960;-62
2022/03/12 01:15:29;;;;;;;11.20;6.53;;;;;;;2.37;64.61;100881.94;4995792;28;20116;-62
2022/03/12 01:18:38;;;;;;;10.00;6.53;;;;;;;2.29;64.80;100884.59;4995607;28;20408;-62
2022/03/12 01:21:42;;;;;;;9.70;6.05;;;;;;;2.43;64.94;100882.69;4995612;28;20068;-62
2022/03/12 01:24:48;;;;;;;11.75;8.25;;;;;;;2.43;64.48;100887.84;4995469;28;20403;-62
2022/03/12 01:27:52;;;;;;;13.27;6.45;;;;;;;2.29;65.34;100885.44;4995493;28;20053;-62
2022/03/12 01:30:56;;;;;;;12.88;6.38;;;;;;;2.33;64.54;100888.84;4995784;28;20137;-62
2022/03/12 01:33:59;;;;;;;10.43;6.70;;;;;;;2.32;64.77;100875.06;4995227;28;20092;-62
2022/03/12 01:37:03;;;;;;;11.43;6.72;;;;;;;2.43;63.90;100877.53;4995512;28;20041;-62
2022/03/12 01:40:07;;;;;;;12.68;6.35;;;;;;;2.58;63.73;100878.19;4995283;28;20137;-62
2022/03/12 01:43:11;;;;;;;13.75;6.60;;;;;;;2.51;63.86;100880.00;4995740;28;20169;-62
2022/03/12 01:46:14;;;;;;;10.32;6.53;;;;;;;2.37;63.90;100881.94;4994997;28;20065;-62
2022/03/12 01:49:22;;;;;;;12.38;6.40;;;;;;;2.47;63.63;100876.63;4995059;28;20045;-62
2022/03/12 01:52:26;;;;;;;10.70;6.18;;;;;;;2.41;63.84;100884.44;4995000;28;20044;-62
2022/03/12 01:55:31;;;;;;;10.27;6.30;;;;;;;2.52;63.95;100873.97;4994652;28;20049;-62
2022/03/12 01:58:35;;;;;;;9.30;6.25;;;;;;;2.38;64.79;100879.31;4994846;28;20105;-62
2022/03/12 02:01:39;;;;;;;17.02;6.57;;;;;;;2.54;64.07;100880.81;4994838;28;20133;-62
2022/03/12 02:04:49;;;;;;;12.75;6.43;;;;;;;2.62;63.88;100877.28;4994651;28;20038;-62
2022/03/12 02:07:55;;;;;;;10.80;6.43;;;;;;;2.53;63.43;100879.13;4994938;28;20535;-62
2022/03/12 02:10:59;;;;;;;9.82;6.45;;;;;;;2.47;63.56;100878.34;4994556;28;20463;-62
2022/03/12 02:14:11;;;;;;;9.57;5.88;;;;;;;2.56;62.97;100876.50;4994641;28;20049;-62
2022/03/12 02:17:14;;;;;;;8.88;6.07;;;;;;;2.55;62.80;100877.38;4994710;28;20100;-62
2022/03/12 02:20:21;;;;;;;12.15;5.68;;;;;;;2.61;62.72;100884.16;4994656;28;20049;-62
2022/03/12 02:23:24;;;;;;;12.85;6.30;;;;;;;2.54;63.53;100883.41;4994469;28;20091;-62
2022/03/12 02:26:27;;;;;;;15.88;6.95;;;;;;;2.73;62.68;100896.91;4994629;28;20053;-62
2022/03/12 02:29:31;;;;;;;11.90;6.00;;;;;;;2.60;63.73;100894.53;4982369;28;20049;-62
2022/03/12 02:32:36;;;;;;;9.65;5.78;;;;;;;2.56;63.61;100885.97;4994582;28;20084;-62
2022/03/12 02:35:40;;;;;;;12.98;6.93;;;;;;;2.42;63.78;100896.44;4994213;28;20069;-62
2022/03/12 02:38:48;;;;;;;12.32;6.75;;;;;;;2.56;63.49;100897.16;4994461;28;20161;-62
2022/03/12 02:41:52;;;;;;;8.82;6.35;;;;;;;2.52;64.12;100902.34;4994530;28;20077;-62
2022/03/12 02:44:56;;;;;;;10.52;6.15;;;;;;;2.45;63.70;100899.00;4994161;28;20064;-62
2022/03/12 02:47:59;;;;;;;16.60;5.85;;;;;;;2.45;63.52;100905.88;4994027;28;20115;-62
2022/03/12 02:51:04;;;;;;;9.88;6.20;;;;;;;2.61;63.24;100906.53;4993820;28;20134;-62
2022/03/12 02:54:07;;;;;;;10.10;5.75;;;;;;;2.48;64.32;100901.53;4993678;28;20045;-62
2022/03/12 02:57:12;;;;;;;13.48;6.88;;;;;;;2.66;63.65;100895.28;4993707;28;20057;-62
2022/03/12 03:00:18;;;;;;;9.40;5.90;;;;;;;2.67;63.63;100901.31;4993720;28;20101;-62
2022/03/12 03:03:22;;;;;;;9.63;6.05;;;;;;;2.54;64.11;100903.19;4993823;28;20041;-62
2022/03/12 03:06:25;;;;;;;10.95;6.35;;;;;;;2.51;63.97;100906.66;4981491;28;20041;-62
2022/03/12 03:09:29;;;;;;;9.45;6.10;;;;;;;2.59;63.80;100914.31;4993870;28;20052;-62
2022/03/12 03:12:34;;;;;;;11.80;6.28;;;;;;;2.65;64.02;100918.53;4993439;28;20045;-62
2022/03/12 03:15:39;;;;;;;7.82;5.72;;;;;;;2.71;63.52;100923.63;4993727;28;20100;-62
2022/03/12 03:18:50;;;;;;;10.18;5.90;;;;;;;2.54;64.57;100927.28;4641883;28;9999997;-62
2022/03/12 03:21:55;;;;;;;13.13;6.38;;;;;;;2.64;64.35;100930.59;4983934;28;20128;-62
2022/03/12 03:24:59;;;;;;;10.93;6.10;;;;;;;2.55;64.66;100934.16;4989922;28;20053;-62
2022/03/12 03:28:04;;;;;;;10.60;5.82;;;;;;;2.63;63.83;100940.94;4989543;28;20104;-62
2022/03/12 03:31:08;;;;;;;10.90;6.28;;;;;;;2.55;64.42;100941.91;4989020;28;20073;-62
2022/03/12 03:34:12;;;;;;;9.30;6.20;;;;;;;2.46;64.96;100943.75;4989626;28;20054;-62
2022/03/12 03:37:16;;;;;;;13.40;5.97;;;;;;;2.67;64.46;100937.44;4989699;28;20057;-62
2022/03/12 03:40:19;;;;;;;10.95;6.28;;;;;;;2.50;64.62;100945.41;4989597;28;20286;-62
2022/03/12 03:43:24;;;;;;;11.52;6.22;;;;;;;2.41;64.88;100940.38;4989676;28;20045;-62
2022/03/12 03:46:27;;;;;;;13.35;6.50;;;;;;;2.52;64.58;100944.53;4989435;28;20060;-62
2022/03/12 03:49:31;;;;;;;7.85;5.93;;;;;;;2.64;64.20;100948.66;4989234;28;20057;-62
2022/03/12 03:52:34;;;;;;;12.38;6.38;;;;;;;2.60;64.53;100953.91;4989139;28;20057;-62
2022/03/12 03:55:38;;;;;;;;;;;;;;;2.46;65.12;100967.84;4989395;28;20053;-62
2022/03/12 03:58:42;;;;;;;8.75;5.72;;;;;;;2.55;64.87;100965.16;4989433;28;19928;-62
2022/03/12 04:01:46;;;;;;;10.32;5.90;;;;;;;2.48;64.88;100971.22;4989533;28;20366;-62
2022/03/12 04:04:52;;;;;;;8.18;5.68;;;;;;;2.51;64.92;100965.19;4989351;28;20365;-62
2022/03/12 04:07:55;;;;;;;10.27;6.30;;;;;;;2.43;65.22;100970.44;4989108;28;20135;-62
2022/03/12 04:11:04;;;;;;;13.25;6.00;;;;;;;2.51;65.21;100963.44;4989318;28;20432;-62
2022/03/12 04:14:08;;;;;;;8.80;5.50;;;;;;;2.48;65.04;100972.97;4988993;28;20097;-62
2022/03/12 04:17:13;;;;;;;14.65;6.90;;;;;;;2.41;65.13;100977.34;4988213;28;20057;-62
2022/03/12 04:20:21;;;;;;;9.50;5.18;;;;;;;2.51;65.17;100978.94;4969175;28;20074;-62
2022/03/12 04:23:27;;;;;;;11.43;6.10;;;;;;;2.24;65.52;100980.13;4969446;28;20117;-62
2022/03/12 04:26:33;;;;;;;11.20;6.25;;;;;;;2.27;66.06;100974.06;4969347;28;20052;-62
2022/03/12 04:29:37;;;;;;;7.85;5.90;;;;;;;2.44;65.37;100982.47;4969298;28;20062;-62
2022/03/12 04:32:45;;;;;;;12.63;6.88;;;;;;;2.46;65.46;100985.91;4970015;28;20130;-62
2022/03/12 04:35:49;;;;;;;10.85;6.10;;;;;;;2.46;65.43;100982.47;4969799;28;20051;-62
2022/03/12 04:38:53;;;;;;;8.15;5.60;;;;;;;2.43;65.12;100985.94;4969147;28;20126;-62
2022/03/12 04:41:58;;;;;;;13.27;6.38;;;;;;;2.55;65.54;100988.38;4968726;28;20133;-62
2022/03/12 04:45:01;;;;;;;;;;;;;;;2.42;65.45;100985.94;4964886;28;20106;-62
2022/03/12 04:48:06;;;;;;;10.05;5.57;;;;;;;2.35;65.62;100992.91;4969290;28;19945;-62
2022/03/12 04:51:09;;;;;;;7.80;5.95;;;;;;;2.22;66.18;100996.47;4969032;28;20113;-62
2022/03/12 04:54:14;;;;;;;13.60;6.45;;;;;;;2.12;66.54;101006.03;4968715;28;20078;-62
2022/03/12 04:57:19;;;;;;;;;;;;;;;2.01;67.07;101003.56;4969745;28;20058;-62
2022/03/12 05:00:28;;;;;;;8.98;6.60;;;;;;;2.10;66.52;101005.19;4969191;28;20398;-62
2022/03/12 05:03:32;;;;;;;10.13;6.47;;;;;;;2.23;66.20;101003.34;4969086;28;20050;-62
2022/03/12 05:06:35;;;;;;;9.52;6.20;;;;;;;2.36;65.91;101004.91;4968463;28;20050;-62
2022/03/12 05:09:39;;;;;;;9.10;6.22;;;;;;;2.25;66.41;101002.47;4968554;28;20146;-62
2022/03/12 05:12:43;;;;;;;10.60;6.30;;;;;;;2.10;66.73;101013.78;4977017;28;20061;-62
2022/03/12 05:15:47;;;;;;;8.93;5.60;;;;;;;1.95;66.76;101015.69;4987295;28;20371;-62
2022/03/12 05:18:53;;;;;;;9.32;5.78;;;;;;;2.11;66.80;101006.91;4976429;28;20103;-62
2022/03/12 05:21:59;;;;;;;11.35;7.05;;;;;;;2.03;67.07;101009.56;4980723;28;20072;-62
2022/03/12 05:25:03;;;;;;;10.38;6.13;;;;;;;2.06;67.19;101011.25;4988110;28;20050;-62
2022/03/12 05:28:15;;;;;;;12.50;5.63;;;;;;;2.04;66.97;101007.81;4989175;28;20042;-62
2022/03/12 05:31:19;;;;;;;10.38;6.32;;;;;;;2.14;66.78;101018.91;5009483;28;20053;-62
2022/03/12 05:34:25;;;;;;;10.05;6.00;;;;;;;2.05;67.35;101020.72;5011891;28;20056;-62
2022/03/12 05:37:28;;;;;;;10.65;6.40;;;;;;;1.83;66.94;101019.22;5014313;28;20052;-62
2022/03/12 05:40:37;;;;;;;9.40;6.85;;;;;;;2.04;66.27;101024.19;5014646;28;20049;-62
2022/03/12 05:43:46;;;;;;;14.93;5.70;;;;;;;1.95;66.80;101024.25;5014700;28;20045;-62
2022/03/12 05:46:49;;;;;;;11.77;6.45;;;;;;;1.90;66.66;101026.00;5014327;28;20191;-62
2022/03/12 05:49:53;;;;;;;11.13;6.70;;;;;;;2.02;66.71;101025.06;5014704;28;20080;-62
2022/03/12 05:52:56;;;;;;;14.35;9.20;;;;;;;1.90;67.39;101030.31;5014833;28;20048;-62
2022/03/12 05:56:00;;;;;;;34.22;21.92;;;;;;;1.89;67.80;101028.63;5014511;28;20566;-62
2022/03/12 05:59:03;;;;;;;23.15;15.27;;;;;;;1.94;67.44;101026.84;5014267;28;20046;-62
2022/03/12 06:02:06;;;;;;;14.80;9.05;;;;;;;1.73;67.71;101035.63;5014306;28;20045;-62
2022/03/12 06:05:12;;;;;;;11.02;6.97;;;;;;;1.62;67.88;101036.53;5007787;28;20101;-62
2022/03/12 06:08:21;;;;;;;11.63;6.30;;;;;;;1.68;67.82;101038.22;5002837;28;20061;-62
2022/03/12 06:11:25;;;;;;;9.68;6.40;;;;;;;1.86;67.41;101029.50;5014061;28;20053;-62
2022/03/12 06:14:30;;;;;;;10.00;6.78;;;;;;;1.95;67.41;101033.72;5013999;28;20069;-62
2022/03/12 06:17:34;;;;;;;21.15;13.27;;;;;;;1.88;67.44;101029.47;5013953;28;20060;-62
2022/03/12 06:20:37;;;;;;;24.23;14.40;;;;;;;2.04;67.46;101039.66;4987199;28;20048;-62
2022/03/12 06:23:40;;;;;;;;;;;;;;;2.12;67.86;101038.72;4993343;28;20053;-62
2022/03/12 06:26:44;;;;;;;12.10;6.72;;;;;;;1.88;68.71;101057.84;4989096;28;19960;-62
2022/03/12 06:29:47;;;;;;;9.10;6.22;;;;;;;2.05;68.59;101050.81;4989243;28;20125;-62
2022/03/12 06:32:52;;;;;;;24.13;13.68;;;;;;;2.17;67.93;101050.72;4990343;28;20540;-62
2022/03/12 06:35:57;;;;;;;12.05;6.90;;;;;;;2.16;68.05;101050.72;4989718;28;20886;-62
2022/03/12 06:39:01;;;;;;;17.05;6.45;;;;;;;2.10;67.62;101054.19;4985613;28;20116;-62
2022/03/12 06:42:05;;;;;;;10.15;6.00;;;;;;;2.08;66.87;101049.06;4991159;28;20049;-62
2022/03/12 06:45:09;;;;;;;9.63;6.45;;;;;;;2.26;66.17;101048.03;4990803;28;20096;-62
2022/03/12 06:48:12;;;;;;;13.05;5.95;;;;;;;2.31;65.65;101058.31;4990706;28;20100;-62
2022/03/12 06:51:16;;;;;;;8.43;6.00;;;;;;;2.52;65.38;101050.38;4987569;28;20539;-62
2022/03/12 06:54:19;;;;;;;11.05;6.38;;;;;;;2.53;65.17;101039.16;4990227;28;20220;-62
2022/03/12 06:57:22;;;;;;;10.43;6.47;;;;;;;2.59;64.88;101047.72;4990798;28;20101;-62
2022/03/12 07:00:28;;;;;;;;;;;;;;;2.64;64.94;101051.94;4990850;28;20097;-62
2022/03/12 07:03:32;;;;;;;11.07;6.80;;;;;;;2.71;65.08;101052.72;4990517;28;19980;-62
2022/03/12 07:06:35;;;;;;;10.52;6.90;;;;;;;2.90;64.57;101048.19;4981211;28;20045;-62
2022/03/12 07:09:38;;;;;;;11.10;6.82;;;;;;;3.09;63.86;101048.81;4988782;28;20408;-62
2022/03/12 07:12:44;;;;;;;10.82;7.63;;;;;;;2.98;63.72;101036.91;4988901;28;20534;-62
2022/03/12 07:15:49;;;;;;;10.90;6.43;;;;;;;3.12;63.42;101044.47;4989277;28;20636;-62
2022/03/12 07:18:52;;;;;;;13.10;7.35;;;;;;;3.25;62.42;101045.16;4987837;28;20142;-62
2022/03/12 07:21:56;;;;;;;10.95;8.15;;;;;;;3.10;62.49;101045.38;4975884;28;20108;-62
2022/03/12 07:24:59;;;;;;;13.85;9.27;;;;;;;3.32;61.83;101046.81;4976724;28;20036;-62
2022/03/12 07:28:03;;;;;;;;;;;;;;;3.29;60.91;101046.84;4984247;28;20339;-62
2022/03/12 07:31:07;;;;;;;19.63;12.00;;;;;;;3.39;60.75;101053.59;4988162;28;19920;-62
2022/03/12 07:34:10;;;;;;;23.90;13.40;;;;;;;3.30;61.55;101053.72;4989251;28;20134;-62
2022/03/12 07:37:13;;;;;;;19.33;11.65;;;;;;;3.43;60.20;101057.81;4988726;28;20109;-62
2022/03/12 07:40:17;;;;;;;;;;;;;;;3.63;59.49;101056.66;4989569;28;20096;-62
2022/03/12 07:43:20;;;;;;;20.38;12.30;;;;;;;3.58;58.26;101061.06;4988477;28;19956;-63
2022/03/12 07:46:23;;;;;;;20.58;13.45;;;;;;;3.80;57.62;101065.03;4988349;28;20057;-62
2022/03/12 07:49:28;;;;;;;16.65;9.23;;;;;;;3.90;53.31;101069.19;4987386;28;20076;-62
2022/03/12 07:52:32;;;;;;;13.45;9.63;;;;;;;4.12;55.15;101066.25;4987129;28;20623;-62
2022/03/12 07:55:35;;;;;;;21.90;13.55;;;;;;;4.17;54.21;101074.78;4989187;28;20776;-62
2022/03/12 07:58:39;;;;;;;;;;;;;;;4.32;52.09;101068.50;4989393;28;20061;-62
2022/03/12 08:01:43;;;;;;;10.73;6.50;;;;;;;4.37;50.15;101070.13;4987596;28;20053;-62
2022/03/12 08:04:46;;;;;;;12.35;6.93;;;;;;;4.47;48.59;101062.16;4985830;28;20137;-63
2022/03/12 08:07:54;;;;;;;9.23;5.70;;;;;;;4.51;47.78;101058.66;4973019;28;20069;-62
2022/03/12 08:14:22;;;;;;;16.27;6.25;;;;;;;4.56;46.75;101056.81;4987636;28;20459;-62
2022/03/12 08:17:26;;;;;;;9.23;6.03;;;;;;;4.58;46.62;101050.72;4985415;28;20330;-62
2022/03/12 08:20:29;;;;;;;7.82;5.72;;;;;;;4.71;47.27;101040.97;4988026;28;20046;-62
2022/03/12 08:23:34;;;;;;;;;;;;;;;4.84;47.46;101047.63;4988935;28;20057;-62
2022/03/12 08:26:41;;;;;;;10.10;5.68;;;;;;;4.87;45.61;101051.88;4988089;28;19925;-63
2022/03/12 08:29:44;;;;;;;9.15;6.00;;;;;;;4.92;46.54;101051.81;4988397;28;20514;-63
2022/03/12 08:32:48;;;;;;;10.82;6.00;;;;;;;4.96;46.30;101045.69;4988156;28;20436;-63
2022/03/12 08:35:52;;;;;;;8.00;5.78;;;;;;;4.97;45.10;101058.59;4988488;28;20061;-65
2022/03/12 08:38:55;;;;;;;9.57;7.07;;;;;;;5.10;46.44;101052.25;4987576;28;20343;-65
2022/03/12 08:41:58;;;;;;;;;;;;;;;5.23;46.03;101050.28;4987196;28;20446;-67
2022/03/12 08:45:01;;;;;;;11.75;7.28;;;;;;;5.35;45.88;101060.38;4987921;28;20379;-69
2022/03/12 08:48:04;;;;;;;;;;;;;;;5.41;45.32;101063.72;4988071;28;20116;-66
2022/03/12 08:51:08;;;;;;;9.45;6.20;;;;;;;5.59;45.08;101058.13;4988288;28;19924;-66
2022/03/12 08:54:11;;;;;;;;;;;;;;;5.67;45.17;101063.97;4989203;28;20113;-65
2022/03/12 08:57:15;;;;;;;10.65;6.20;;;;;;;5.82;44.12;101066.19;4988698;28;19964;-64
2022/03/12 09:00:19;;;;;;;8.65;5.53;;;;;;;5.99;45.06;101067.56;4984618;28;20068;-65
2022/03/12 09:03:23;;;;;;;10.07;6.25;;;;;;;6.20;44.37;101061.84;4989685;28;20140;-66
2022/03/12 09:06:28;;;;;;;9.48;6.55;;;;;;;6.37;43.46;101057.97;4991409;28;20045;-66
2022/03/12 09:09:32;;;;;;;13.15;6.03;;;;;;;6.45;43.59;101061.22;4992001;28;20412;-66
2022/03/12 09:12:35;;;;;;;9.05;6.65;;;;;;;6.48;43.40;101061.97;4992095;28;20053;-65
2022/03/12 09:15:39;;;;;;;;;;;;;;;6.57;43.63;101060.84;4992136;28;20129;-65
2022/03/12 09:18:46;;;;;;;15.40;5.72;;;;;;;6.70;43.50;101059.66;4991102;28;19958;-65
2022/03/12 09:21:49;;;;;;;9.43;6.50;;;;;;;6.98;42.61;101058.84;4991055;28;20049;-65
2022/03/12 09:24:53;;;;;;;;;;;;;;;7.23;42.25;101061.59;4991061;28;20097;-67
2022/03/12 09:27:56;;;;;;;8.73;5.25;;;;;;;7.33;41.35;101054.38;4990680;28;19921;-65
2022/03/12 09:31:00;;;;;;;;;;;;;;;7.45;41.55;101056.59;4991959;28;20060;-65
2022/03/12 09:34:05;;;;;;;8.55;6.05;;;;;;;7.49;41.49;101055.59;4991250;28;19996;-65
2022/03/12 09:37:09;;;;;;;10.30;6.75;;;;;;;7.66;41.58;101055.94;4991868;28;20133;-65
2022/03/12 09:40:15;;;;;;;;;;;;;;;7.73;41.31;101053.13;4992304;28;20463;-66
2022/03/12 09:43:18;;;;;;;11.63;7.03;;;;;;;7.85;41.41;101056.19;4981590;28;20387;-65
2022/03/12 09:46:22;;;;;;;13.90;7.03;;;;;;;7.78;41.02;101053.81;4989915;28;20142;-66
2022/03/12 09:49:27;;;;;;;15.82;8.73;;;;;;;7.87;41.26;101043.13;4991962;28;20045;-66
2022/03/12 09:52:31;;;;;;;13.80;7.75;;;;;;;7.99;40.59;101047.94;4990045;28;20097;-66
2022/03/12 09:55:34;;;;;;;14.57;7.03;;;;;;;8.09;40.41;101044.09;4977083;28;20156;-66
2022/03/12 09:58:38;;;;;;;17.33;9.00;;;;;;;7.95;40.39;101059.34;4990025;28;20096;-66
2022/03/12 10:01:41;;;;;;;11.55;7.88;;;;;;;8.16;40.59;101055.16;4990578;28;20084;-66
2022/03/12 10:04:46;;;;;;;10.35;7.32;;;;;;;8.28;41.04;101057.34;4990363;28;20444;-65
2022/03/12 10:07:50;;;;;;;9.63;7.03;;;;;;;8.36;40.68;101062.31;4989183;28;20045;-66
2022/03/12 10:10:54;;;;;;;13.27;7.20;;;;;;;8.33;41.35;101052.84;4986185;28;20054;-66
2022/03/12 10:13:57;;;;;;;11.70;6.95;;;;;;;8.44;40.92;101049.91;4990079;28;20057;-65
2022/03/12 10:17:02;;;;;;;10.48;7.20;;;;;;;8.47;40.56;101046.34;4989730;28;20579;-66
2022/03/12 10:20:11;;;;;;;10.82;6.97;;;;;;;8.49;40.24;101037.56;4990004;28;20065;-66
2022/03/12 10:23:18;;;;;;;13.70;6.93;;;;;;;8.69;40.21;101031.63;4989836;28;20137;-66
2022/03/12 10:26:21;;;;;;;14.73;6.68;;;;;;;8.89;40.69;101032.66;4984323;28;20515;-66
2022/03/12 10:29:24;;;;;;;11.48;7.25;;;;;;;8.90;40.75;101027.38;4990107;28;20415;-66
2022/03/12 10:32:34;;;;;;;12.52;7.70;;;;;;;8.96;41.13;101016.69;4990132;28;20054;-70
2022/03/12 10:35:38;;;;;;;11.70;7.50;;;;;;;9.08;41.72;101016.25;4990135;28;20519;-65
2022/03/12 10:38:44;;;;;;;10.38;8.10;;;;;;;9.21;41.52;101005.34;4990205;28;20053;-66
2022/03/12 10:41:48;;;;;;;13.23;7.78;;;;;;;9.03;40.69;101002.53;4983676;28;20050;-66
2022/03/12 10:44:51;;;;;;;;;;;;;;;9.06;40.53;101002.44;4990904;28;20044;-66
2022/03/12 10:48:02;;;;;;;10.75;7.57;;;;;;;9.05;40.53;101005.94;4989168;28;19923;-65
2022/03/12 10:51:05;;;;;;;12.88;7.68;;;;;;;9.10;40.98;101007.53;4989096;28;20054;-66
2022/03/12 10:54:15;;;;;;;8.85;6.78;;;;;;;9.12;41.58;101003.94;4975869;28;20408;-65
2022/03/12 10:57:19;;;;;;;15.70;7.40;;;;;;;9.17;41.45;100998.56;4989578;28;20041;-66
2022/03/12 11:00:24;;;;;;;13.30;8.18;;;;;;;9.16;41.54;101002.94;4989753;28;20046;-66
2022/03/12 11:03:32;;;;;;;10.77;7.82;;;;;;;9.17;41.13;101004.63;4989951;28;20566;-68
2022/03/12 11:06:36;;;;;;;13.13;7.88;;;;;;;9.22;42.01;101004.41;4990595;28;20121;-65
2022/03/12 11:09:42;;;;;;;13.65;7.68;;;;;;;9.31;41.86;101015.34;4984255;28;20077;-66
2022/03/12 11:12:51;;;;;;;11.35;7.93;;;;;;;9.35;41.93;101018.72;4977797;28;20429;-66
2022/03/12 11:16:09;;;;;;;12.57;8.50;;;;;;;9.54;40.74;101004.03;4990042;28;20049;-66
2022/03/12 11:19:13;;;;;;;11.90;7.90;;;;;;;9.78;40.77;101006.53;4989026;28;20340;-66
2022/03/12 11:22:18;;;;;;;13.73;8.40;;;;;;;9.98;40.58;101000.47;4984284;28;20129;-66
2022/03/12 11:25:23;;;;;;;10.90;7.90;;;;;;;9.96;39.89;101002.31;4977807;28;20045;-66
2022/03/12 11:28:29;;;;;;;14.10;7.60;;;;;;;9.99;40.50;100995.19;4979128;28;20354;-66
2022/03/12 11:31:39;;;;;;;12.07;7.68;;;;;;;10.15;41.42;100991.94;4968715;28;20042;-66
2022/03/12 11:34:43;;;;;;;12.20;7.82;;;;;;;10.54;41.07;100984.13;4969787;28;20522;-66
2022/03/12 11:37:47;;;;;;;13.60;8.25;;;;;;;10.79;39.69;100986.50;4980549;28;20527;-66
2022/03/12 11:41:09;;;;;;;17.73;9.13;;;;;;;10.80;39.15;100977.72;4988318;28;20137;-66
2022/03/12 11:44:12;;;;;;;19.15;8.60;;;;;;;10.78;39.42;100979.53;4988228;28;20586;-66
2022/03/12 11:47:20;;;;;;;;;;;;;;;10.76;39.20;100977.94;4988405;28;20606;-66
2022/03/12 11:50:24;;;;;;;13.00;8.10;;;;;;;11.01;39.14;100964.53;4987359;28;20012;-66
2022/03/12 11:53:37;;;;;;;13.80;9.43;;;;;;;10.85;39.04;100957.44;4987838;28;20077;-66
2022/03/12 11:56:40;;;;;;;15.40;12.20;;;;;;;11.01;39.98;100960.19;4988659;28;20109;-66
2022/03/12 11:59:44;;;;;;;24.55;15.77;;;;;;;10.88;39.19;100954.69;4987322;28;20116;-66
2022/03/12 12:02:48;;;;;;;36.17;23.52;;;;;;;10.97;39.24;100952.53;4988170;28;20045;-65
2022/03/12 12:05:55;;;;;;;21.88;13.57;;;;;;;11.05;39.17;100948.66;4976304;28;20116;-66
2022/03/12 12:08:59;;;;;;;10.43;8.35;;;;;;;11.39;39.67;100934.78;4988836;28;20046;-66
2022/03/12 12:12:11;;;;;;;15.38;8.70;;;;;;;11.66;39.27;100941.34;4989430;28;20061;-66
2022/03/12 12:15:17;;;;;;;11.38;8.43;;;;;;;11.84;39.23;100930.81;4979678;28;20045;-66
2022/03/12 12:18:22;;;;;;;11.02;8.18;;;;;;;11.98;38.63;100927.47;4985590;28;20045;-66
2022/03/12 12:21:25;;;;;;;9.25;7.40;;;;;;;11.86;39.81;100926.31;4986933;28;20571;-66
2022/03/12 12:24:31;;;;;;;10.25;7.80;;;;;;;11.98;40.30;100932.72;4987696;28;20032;-66
2022/03/12 12:27:45;;;;;;;12.95;8.82;;;;;;;11.94;40.45;100927.72;4975672;28;20184;-66
2022/03/12 12:30:50;;;;;;;11.43;8.43;;;;;;;11.92;40.91;100926.94;4989073;28;20050;-66
2022/03/12 12:34:00;;;;;;;9.88;7.65;;;;;;;12.67;39.67;100922.97;4986789;28;20614;-66
2022/03/12 12:37:04;;;;;;;10.18;7.55;;;;;;;12.92;39.68;100925.06;4988490;28;20096;-66
2022/03/12 12:40:16;;;;;;;8.23;6.97;;;;;;;13.03;39.04;100918.31;4987391;28;20089;-66
2022/03/12 12:43:31;;;;;;;10.38;8.80;;;;;;;12.76;39.38;100920.69;4986463;28;20100;-66
2022/03/12 12:46:35;;;;;;;11.07;8.75;;;;;;;12.67;39.79;100929.06;4958188;28;20073;-66
2022/03/12 12:49:45;;;;;;;15.93;8.18;;;;;;;12.66;40.49;100935.22;4982334;28;20072;-66
2022/03/12 12:53:28;;;;;;;10.63;8.07;;;;;;;11.76;43.66;100932.94;4986402;28;20128;-66
2022/03/12 12:56:33;;;;;;;10.73;8.23;;;;;;;11.86;43.66;100931.56;4980080;28;20452;-66
2022/03/12 12:59:41;;;;;;;8.85;6.70;;;;;;;11.79;44.18;100922.28;4987568;28;20073;-66
2022/03/12 13:02:44;;;;;;;9.82;7.40;;;;;;;11.70;43.97;100911.44;4981008;28;20105;-67
2022/03/12 13:05:49;;;;;;;12.10;7.82;;;;;;;11.82;43.65;100906.41;4987209;28;20217;-66
2022/03/12 13:08:53;;;;;;;8.60;6.55;;;;;;;12.14;43.20;100898.69;4987223;28;20049;-67
2022/03/12 13:12:02;;;;;;;11.70;6.78;;;;;;;12.29;42.43;100890.03;4987548;28;20133;-66
2022/03/12 13:15:13;;;;;;;11.00;7.05;;;;;;;12.46;41.98;100885.63;4987620;28;20048;-66
2022/03/12 13:18:16;;;;;;;8.27;5.82;;;;;;;12.34;42.40;100893.22;4986311;28;20053;-66
2022/03/12 13:21:28;;;;;;;8.40;6.05;;;;;;;12.56;42.14;100898.16;4987453;28;20574;-66
2022/03/12 13:24:52;;;;;;;9.25;6.72;;;;;;;12.51;41.55;100891.50;4988428;28;20046;-66
2022/03/12 13:28:00;;;;;;;9.95;7.28;;;;;;;12.54;41.32;100899.19;4987049;28;20551;-66
2022/03/12 13:31:31;;;;;;;12.02;7.75;;;;;;;12.33;41.76;100903.81;4988019;28;20049;-66
2022/03/12 13:34:36;;;;;;;11.95;7.68;;;;;;;12.11;42.17;100904.09;4986850;28;20117;-67
2022/03/12 13:37:40;;;;;;;9.98;6.80;;;;;;;11.90;42.49;100897.34;4979827;28;20080;-66
2022/03/12 13:40:44;;;;;;;9.73;6.20;;;;;;;12.10;42.16;100898.00;4980432;28;20065;-66
2022/03/12 13:43:50;;;;;;;8.75;6.53;;;;;;;12.17;42.11;100898.53;4987578;28;20050;-66
2022/03/12 13:46:54;;;;;;;9.05;6.78;;;;;;;11.86;42.18;100905.38;4974354;28;20272;-66
2022/03/12 13:49:57;;;;;;;8.82;6.93;;;;;;;11.68;41.67;100897.56;4987589;28;20050;-66
2022/03/12 13:53:02;;;;;;;11.25;6.55;;;;;;;11.77;41.99;100905.81;4990205;28;20107;-66
2022/03/12 13:56:18;;;;;;;10.85;7.43;;;;;;;11.67;41.84;100896.72;4990479;28;20077;-66
2022/03/12 13:59:29;;;;;;;11.63;6.78;;;;;;;11.86;41.43;100894.88;4988884;28;20514;-66
2022/03/12 14:02:34;;;;;;;12.45;7.22;;;;;;;11.88;41.33;100888.72;4970921;28;20473;-66
2022/03/12 14:05:39;;;;;;;10.65;7.05;;;;;;;11.94;41.21;100893.66;4970701;28;20114;-66
2022/03/12 14:08:45;;;;;;;9.80;8.05;;;;;;;12.03;41.10;100894.03;4971051;28;20049;-66
2022/03/12 14:11:58;;;;;;;9.80;6.65;;;;;;;12.16;41.24;100898.63;4970440;28;20109;-67
2022/03/12 14:15:03;;;;;;;12.90;8.20;;;;;;;12.44;40.32;100897.97;4969498;28;20519;-66
2022/03/12 14:18:07;;;;;;;13.32;7.13;;;;;;;12.77;39.75;100893.50;4970657;28;20088;-65
2022/03/12 14:21:13;;;;;;;7.97;6.60;;;;;;;13.12;39.05;100895.94;4966783;28;20129;-66
2022/03/12 14:24:28;;;;;;;9.10;6.65;;;;;;;13.37;38.06;100897.16;4970604;28;20038;-66
2022/03/12 14:27:33;;;;;;;12.43;7.22;;;;;;;14.43;36.20;100886.41;4970467;28;20511;-67
2022/03/12 14:30:36;;;;;;;14.63;9.38;;;;;;;14.68;36.07;100884.88;4990767;28;20049;-66
2022/03/12 14:33:40;;;;;;;15.93;8.00;;;;;;;13.48;37.88;100884.28;4990995;28;20045;-66